Time;durP1;ratioP1;P1;durP2;ratioP2;P2;SDS_P1;SDS_P2;PMS_P1;PMS_P2;Temp;Humidity;BMP_temperature;BMP_pressure;BME280_temperature;BME280_humidity;BME280_pressure;Samples;Min_cycle;Max_cycle;Signal;HPM_P1;HPM_P2
2022/09/29 00:01:22;;;;;;;;;;;15.50;93.70;;;;;;5015751;28;19909;-23
2022/09/29 00:03:48;;;;;;;;;;;15.50;93.70;;;;;;5015906;28;19905;-23
2022/09/29 00:06:14;;;;;;;;;;;15.50;93.70;;;;;;5015994;28;19906;-23
2022/09/29 00:08:40;;;;;;;;;;;15.50;93.70;;;;;;5015752;28;19960;-23
2022/09/29 00:11:07;;;;;;;;;;;15.50;94.00;;;;;;5015865;28;20330;-23
2022/09/29 00:13:32;;;;;;;;;;;15.50;93.70;;;;;;5015645;28;20404;-23
2022/09/29 00:15:59;;;;;;;;;;;15.50;93.70;;;;;;5014531;28;19910;-23
2022/09/29 00:18:24;;;;;;;;;;;15.50;93.60;;;;;;5015795;28;19906;-23
2022/09/29 00:20:56;;;;;;;;;;;15.50;93.60;;;;;;5015884;28;19906;-23
2022/09/29 00:23:23;;;;;;;;;;;15.50;93.60;;;;;;5014535;28;20363;-23
2022/09/29 00:25:57;;;;;;;;;;;15.50;93.60;;;;;;5015693;28;19951;-23
2022/09/29 00:28:22;;;;;;;;;;;15.50;93.60;;;;;;5015687;28;20003;-22
2022/09/29 00:30:48;;;;;;;;;;;15.50;93.60;;;;;;5016238;28;20445;-23
2022/09/29 00:33:13;;;;;;;;;;;15.50;93.60;;;;;;5016747;28;19905;-23
2022/09/29 00:35:39;;;;;;;;;;;15.50;93.60;;;;;;5017073;28;19906;-23
2022/09/29 00:38:04;;;;;;;;;;;15.50;93.60;;;;;;5017141;28;19931;-23
2022/09/29 00:40:30;;;;;;;;;;;15.50;93.60;;;;;;5015496;28;19905;-23
2022/09/29 00:42:55;;;;;;;;;;;15.50;93.60;;;;;;5015470;28;19913;-23
2022/09/29 00:45:22;;;;;;;;;;;15.40;93.60;;;;;;5015320;28;19932;-23
2022/09/29 00:48:07;;;;;;;;;;;15.50;93.70;;;;;;5015037;28;19905;-23
2022/09/29 00:50:33;;;;;;;;;;;15.50;93.60;;;;;;5014508;28;19910;-23
2022/09/29 00:53:01;;;;;;;;;;;15.50;93.70;;;;;;5014761;28;19928;-23
2022/09/29 00:55:30;;;;;;;;;;;15.50;93.60;;;;;;5013481;28;19912;-23
2022/09/29 00:58:02;;;;;;;;;;;15.40;93.60;;;;;;5013511;28;19917;-23
2022/09/29 01:00:28;;;;;;;;;;;15.40;93.60;;;;;;5014782;28;20048;-23
2022/09/29 01:03:00;;;;;;;;;;;15.40;93.60;;;;;;5015078;28;19979;-23
2022/09/29 01:05:28;;;;;;;;;;;15.50;93.70;;;;;;5014594;28;19937;-23
2022/09/29 01:07:54;;;;;;;;;;;15.40;93.60;;;;;;5014438;28;19909;-23
2022/09/29 01:10:20;;;;;;;;;;;15.50;93.60;;;;;;5014377;28;19905;-23
2022/09/29 01:12:47;;;;;;;;;;;15.40;93.60;;;;;;5014416;28;19906;-23
2022/09/29 01:15:15;;;;;;;;;;;15.40;93.60;;;;;;5014650;28;19905;-23
2022/09/29 01:17:40;;;;;;;;;;;15.50;93.70;;;;;;5014759;28;19909;-23
2022/09/29 01:20:12;;;;;;;;;;;15.40;93.60;;;;;;5014826;28;20258;-23
2022/09/29 01:22:55;;;;;;;;;;;15.40;93.60;;;;;;5014632;28;19909;-23
2022/09/29 01:25:24;;;;;;;;;;;15.50;93.60;;;;;;5013182;28;19905;-23
2022/09/29 01:28:17;;;;;;;;;;;15.40;93.60;;;;;;5014558;28;19906;-23
2022/09/29 01:30:49;;;;;;;;;;;15.40;93.60;;;;;;5014029;28;19932;-23
2022/09/29 01:33:22;;;;;;;;;;;15.50;93.70;;;;;;5014306;28;19906;-23
2022/09/29 01:35:51;;;;;;;;;;;15.40;93.70;;;;;;5014067;28;19905;-23
2022/09/29 01:38:35;;;;;;;;;;;15.50;93.70;;;;;;5013944;28;19917;-23
2022/09/29 01:41:06;;;;;;;;;;;15.50;93.70;;;;;;5013627;28;20347;-23
2022/09/29 01:43:35;;;;;;;;;;;15.40;93.70;;;;;;5013900;28;19905;-23
2022/09/29 01:46:03;;;;;;;;;;;15.40;93.70;;;;;;5013536;28;20424;-23
2022/09/29 01:48:32;;;;;;;;;;;15.40;93.70;;;;;;5013726;28;20008;-23
2022/09/29 01:51:00;;;;;;;;;;;15.40;93.70;;;;;;5013622;28;19906;-23
2022/09/29 01:53:29;;;;;;;;;;;15.40;93.70;;;;;;5012495;28;19960;-23
2022/09/29 01:55:57;;;;;;;;;;;15.40;94.00;;;;;;5014004;28;19909;-23
2022/09/29 01:58:25;;;;;;;;;;;15.40;93.70;;;;;;5013494;28;19963;-23
2022/09/29 02:00:53;;;;;;;;;;;15.40;93.70;;;;;;5013548;28;19912;-23
2022/09/29 02:03:31;;;;;;;;;;;15.40;93.70;;;;;;5013699;28;19913;-23
2022/09/29 02:06:01;;;;;;;;;;;15.40;93.70;;;;;;5013524;28;19906;-23
2022/09/29 02:08:31;;;;;;;;;;;15.40;93.70;;;;;;5013349;28;20278;-23
2022/09/29 02:11:07;;;;;;;;;;;15.40;93.70;;;;;;5012032;28;19992;-23
2022/09/29 02:13:39;;;;;;;;;;;15.40;93.70;;;;;;5013366;28;19909;-23
2022/09/29 02:16:08;;;;;;;;;;;15.40;93.70;;;;;;5013292;28;20004;-23
2022/09/29 02:18:41;;;;;;;;;;;15.40;93.70;;;;;;5013182;28;19909;-23
2022/09/29 02:21:07;;;;;;;;;;;15.40;93.70;;;;;;5013264;28;19944;-23
2022/09/29 02:23:33;;;;;;;;;;;15.40;93.70;;;;;;5013381;28;19916;-23
2022/09/29 02:25:59;;;;;;;;;;;15.40;93.70;;;;;;5013570;28;19905;-23
2022/09/29 02:28:24;;;;;;;;;;;15.40;93.70;;;;;;5013277;28;20383;-23
2022/09/29 02:30:51;;;;;;;;;;;15.40;93.70;;;;;;5012929;28;19905;-23
2022/09/29 02:33:21;;;;;;;;;;;15.40;93.80;;;;;;5011806;28;19905;-23
2022/09/29 02:36:07;;;;;;;;;;;15.30;93.70;;;;;;5013064;28;20377;-23
2022/09/29 02:38:51;;;;;;;;;;;15.40;93.80;;;;;;5012597;28;19944;-23
2022/09/29 02:41:22;;;;;;;;;;;15.40;93.70;;;;;;5012893;28;20003;-23
2022/09/29 02:44:08;;;;;;;;;;;15.40;93.80;;;;;;5012938;28;19909;-23
2022/09/29 02:46:47;;;;;;;;;;;15.30;93.70;;;;;;5012608;28;20386;-23
2022/09/29 02:49:23;;;;;;;;;;;15.40;93.80;;;;;;5012918;28;19921;-23
2022/09/29 02:51:57;;;;;;;;;;;15.40;93.80;;;;;;5012773;28;19909;-23
2022/09/29 02:54:41;;;;;;;;;;;15.40;93.80;;;;;;5012761;28;19905;-23
2022/09/29 02:57:13;;;;;;;;;;;15.30;93.80;;;;;;5011882;28;19917;-23
2022/09/29 02:59:46;;;;;;;;;;;15.40;93.80;;;;;;5011472;28;19906;-23
2022/09/29 03:02:12;;;;;;;;;;;15.40;93.80;;;;;;5012281;28;19920;-23
2022/09/29 03:04:37;;;;;;;;;;;15.30;93.80;;;;;;5012769;28;19910;-23
2022/09/29 03:07:03;;;;;;;;;;;15.40;93.80;;;;;;5012600;28;19910;-23
2022/09/29 03:09:28;;;;;;;;;;;15.40;93.80;;;;;;5012495;28;19910;-23
2022/09/29 03:11:54;;;;;;;;;;;15.30;93.80;;;;;;5012478;28;19909;-23
2022/09/29 03:14:19;;;;;;;;;;;15.30;93.80;;;;;;5012768;28;19945;-23
2022/09/29 03:16:45;;;;;;;;;;;15.30;93.80;;;;;;5012419;28;20288;-23
2022/09/29 03:19:10;;;;;;;;;;;15.30;93.80;;;;;;5010971;28;19909;-23
2022/09/29 03:21:36;;;;;;;;;;;15.30;93.80;;;;;;5012468;28;19910;-23
2022/09/29 03:24:01;;;;;;;;;;;15.30;93.80;;;;;;5012628;28;20278;-23
2022/09/29 03:26:29;;;;;;;;;;;15.40;93.80;;;;;;5012620;28;19909;-23
2022/09/29 03:28:54;;;;;;;;;;;15.30;93.80;;;;;;5012575;28;20376;-23
2022/09/29 03:31:20;;;;;;;;;;;15.40;93.80;;;;;;5012322;28;19952;-23
2022/09/29 03:33:46;;;;;;;;;;;15.30;93.80;;;;;;5012489;28;19936;-23
2022/09/29 03:36:12;;;;;;;;;;;15.30;93.90;;;;;;5012463;28;19906;-23
2022/09/29 03:38:37;;;;;;;;;;;15.30;93.90;;;;;;5014409;28;20382;-23
2022/09/29 03:41:03;;;;;;;;;;;15.30;93.90;;;;;;5015568;28;19917;-23
2022/09/29 03:43:29;;;;;;;;;;;15.30;93.90;;;;;;5012747;28;20008;-23
2022/09/29 03:45:55;;;;;;;;;;;15.30;94.20;;;;;;5012931;28;19960;-23
2022/09/29 03:48:21;;;;;;;;;;;15.30;93.90;;;;;;5011196;28;19916;-23
2022/09/29 03:50:47;;;;;;;;;;;15.30;93.90;;;;;;5012343;28;19992;-23
2022/09/29 03:53:13;;;;;;;;;;;15.30;93.90;;;;;;5012465;28;20335;-23
2022/09/29 03:55:39;;;;;;;;;;;15.30;93.90;;;;;;5012461;28;20009;-23
2022/09/29 03:58:04;;;;;;;;;;;15.30;93.90;;;;;;5010892;28;19967;-23
2022/09/29 04:00:30;;;;;;;;;;;15.30;93.90;;;;;;5012121;28;19905;-23
2022/09/29 04:02:56;;;;;;;;;;;15.30;93.90;;;;;;5012015;28;19921;-23
2022/09/29 04:05:21;;;;;;;;;;;15.20;93.90;;;;;;5012276;28;20275;-23
2022/09/29 04:07:47;;;;;;;;;;;15.30;93.90;;;;;;5011988;28;19905;-23
2022/09/29 04:10:12;;;;;;;;;;;15.30;93.90;;;;;;5015046;28;19909;-23
2022/09/29 04:12:38;;;;;;;;;;;15.30;93.90;;;;;;5015625;28;20319;-23
2022/09/29 04:15:04;;;;;;;;;;;15.20;93.90;;;;;;5016094;28;19912;-23
2022/09/29 04:17:29;;;;;;;;;;;15.20;94.20;;;;;;5015469;28;19914;-23
2022/09/29 04:19:55;;;;;;;;;;;15.20;93.90;;;;;;5015484;28;19912;-23
2022/09/29 04:22:20;;;;;;;;;;;15.20;93.90;;;;;;5015431;28;20008;-23
2022/09/29 04:24:47;;;;;;;;;;;15.20;93.90;;;;;;5015539;28;19912;-23
2022/09/29 04:27:13;;;;;;;;;;;15.20;93.90;;;;;;5015469;28;19996;-23
2022/09/29 04:29:38;;;;;;;;;;;15.20;93.90;;;;;;5015236;28;19905;-23
2022/09/29 04:32:05;;;;;;;;;;;15.20;93.90;;;;;;5015033;28;20392;-23
2022/09/29 04:34:31;;;;;;;;;;;15.20;93.90;;;;;;5015257;28;19927;-23
2022/09/29 04:36:56;;;;;;;;;;;15.20;93.90;;;;;;5013817;28;20358;-23
2022/09/29 04:39:22;;;;;;;;;;;15.20;93.90;;;;;;5014970;28;19906;-23
2022/09/29 04:41:47;;;;;;;;;;;15.20;93.90;;;;;;5014904;28;19930;-23
2022/09/29 04:44:13;;;;;;;;;;;15.20;93.90;;;;;;5015062;28;19916;-23
2022/09/29 04:46:38;;;;;;;;;;;15.20;93.80;;;;;;5015030;28;19992;-23
2022/09/29 04:49:04;;;;;;;;;;;15.20;93.80;;;;;;5014864;28;19906;-23
2022/09/29 04:51:29;;;;;;;;;;;15.20;93.80;;;;;;5014857;28;19910;-23
2022/09/29 04:53:56;;;;;;;;;;;15.20;93.80;;;;;;5015202;28;19913;-23
2022/09/29 04:56:22;;;;;;;;;;;15.20;93.80;;;;;;5014835;28;19912;-23
2022/09/29 04:58:47;;;;;;;;;;;15.20;93.80;;;;;;5014569;28;19905;-22
2022/09/29 05:01:13;;;;;;;;;;;15.20;93.80;;;;;;5014529;28;19921;-23
2022/09/29 05:03:38;;;;;;;;;;;15.20;93.80;;;;;;5014948;28;19906;-23
2022/09/29 05:06:04;;;;;;;;;;;15.10;93.80;;;;;;5014796;28;20318;-23
2022/09/29 05:08:30;;;;;;;;;;;15.20;93.80;;;;;;5013369;28;20367;-23
2022/09/29 05:10:56;;;;;;;;;;;15.10;93.80;;;;;;5014629;28;19951;-23
2022/09/29 05:13:22;;;;;;;;;;;15.10;93.80;;;;;;5013800;28;19959;-23
2022/09/29 05:15:47;;;;;;;;;;;15.10;93.80;;;;;;5015073;28;19924;-23
2022/09/29 05:18:13;;;;;;;;;;;15.10;93.80;;;;;;5015069;28;19960;-23
2022/09/29 05:20:38;;;;;;;;;;;15.20;93.80;;;;;;5013603;28;19981;-23
2022/09/29 05:23:08;;;;;;;;;;;15.20;93.80;;;;;;5014707;28;19906;-23
2022/09/29 05:25:35;;;;;;;;;;;15.10;93.80;;;;;;5013422;28;19906;-23
2022/09/29 05:28:00;;;;;;;;;;;15.20;93.80;;;;;;5014418;28;20036;-23
2022/09/29 05:30:26;;;;;;;;;;;15.10;93.70;;;;;;5014145;28;19963;-23
2022/09/29 05:32:51;;;;;;;;;;;15.10;93.70;;;;;;5014164;28;19905;-23
2022/09/29 05:35:17;;;;;;;;;;;15.20;93.80;;;;;;5014267;28;20362;-23
2022/09/29 05:37:44;;;;;;;;;;;15.10;93.70;;;;;;5014088;28;19920;-23
2022/09/29 05:40:09;;;;;;;;;;;15.10;93.70;;;;;;5014215;28;20264;-23
2022/09/29 05:42:35;;;;;;;;;;;15.10;93.70;;;;;;5014007;28;19905;-23
2022/09/29 05:45:00;;;;;;;;;;;15.10;93.70;;;;;;5014225;28;19905;-23
2022/09/29 05:47:26;;;;;;;;;;;15.10;93.70;;;;;;5013938;28;19906;-23
2022/09/29 05:49:51;;;;;;;;;;;15.10;93.70;;;;;;5014199;28;19906;-23
2022/09/29 05:52:17;;;;;;;;;;;15.10;93.70;;;;;;5014009;28;19967;-23
2022/09/29 05:54:42;;;;;;;;;;;15.10;93.70;;;;;;5014401;28;19916;-23
2022/09/29 05:57:08;;;;;;;;;;;15.10;93.70;;;;;;5014084;28;19956;-23
2022/09/29 05:59:33;;;;;;;;;;;15.10;93.70;;;;;;5013860;28;19929;-23
2022/09/29 06:01:59;;;;;;;;;;;15.10;93.70;;;;;;5013867;28;20290;-23
2022/09/29 06:04:24;;;;;;;;;;;15.10;93.70;;;;;;5014028;28;19905;-23
2022/09/29 06:06:50;;;;;;;;;;;15.10;93.70;;;;;;5014049;28;19909;-23
2022/09/29 06:09:15;;;;;;;;;;;15.10;93.70;;;;;;5013693;28;20004;-23
2022/09/29 06:11:41;;;;;;;;;;;15.00;93.70;;;;;;5013598;28;19949;-23
2022/09/29 06:14:06;;;;;;;;;;;15.10;93.70;;;;;;5013508;28;20003;-23
2022/09/29 06:16:33;;;;;;;;;;;15.00;93.70;;;;;;5013821;28;19924;-23
2022/09/29 06:18:59;;;;;;;;;;;15.00;93.70;;;;;;5013625;28;20259;-23
2022/09/29 06:21:26;;;;;;;;;;;15.00;93.70;;;;;;5013468;28;19920;-23
2022/09/29 06:23:52;;;;;;;;;;;15.00;93.70;;;;;;5013715;28;19928;-23
2022/09/29 06:26:19;;;;;;;;;;;15.00;93.70;;;;;;5013884;28;19913;-23
2022/09/29 06:28:45;;;;;;;;;;;15.00;93.70;;;;;;5013679;28;19992;-23
2022/09/29 06:31:12;;;;;;;;;;;15.00;93.70;;;;;;5013301;28;19937;-23
2022/09/29 06:33:37;;;;;;;;;;;15.00;93.70;;;;;;5013557;28;20438;-23
2022/09/29 06:39:04;;;;;;;;;;;15.00;93.70;;;;;;5013396;28;19967;-23
2022/09/29 06:41:30;;;;;;;;;;;15.00;93.70;;;;;;5013232;28;19928;-23
2022/09/29 06:43:55;;;;;;;;;;;14.90;92.10;;;;;;5016089;28;20379;-23
2022/09/29 06:46:21;;;;;;;;;;;14.60;91.40;;;;;;5014253;28;20261;-23
2022/09/29 06:48:47;;;;;;;;;;;14.50;91.90;;;;;;5013535;28;20278;-24
2022/09/29 06:51:13;;;;;;;;;;;14.40;92.10;;;;;;5011782;28;19986;-23
2022/09/29 06:53:39;;;;;;;;;;;14.50;92.40;;;;;;5013329;28;19905;-23
2022/09/29 06:56:05;;;;;;;;;;;14.50;92.50;;;;;;5012022;28;19912;-23
2022/09/29 06:58:30;;;;;;;;;;;14.60;92.50;;;;;;5013401;28;19913;-23
2022/09/29 07:00:59;;;;;;;;;;;14.60;92.60;;;;;;5013056;28;19951;-23
2022/09/29 07:03:24;;;;;;;;;;;14.70;92.70;;;;;;5013528;28;19916;-24
2022/09/29 07:05:50;;;;;;;;;;;14.70;92.70;;;;;;5013198;28;19906;-24
2022/09/29 07:08:15;;;;;;;;;;;14.70;92.70;;;;;;5012933;28;19996;-24
2022/09/29 07:10:41;;;;;;;;;;;14.70;92.80;;;;;;5013030;28;19912;-23
2022/09/29 07:13:08;;;;;;;;;;;14.70;92.80;;;;;;5012962;28;19909;-23
2022/09/29 07:15:34;;;;;;;;;;;14.80;92.80;;;;;;5013213;28;19909;-23
2022/09/29 07:18:00;;;;;;;;;;;14.80;92.90;;;;;;5011709;28;19909;-23
2022/09/29 07:20:27;;;;;;;;;;;14.80;92.90;;;;;;5012742;28;19906;-23
2022/09/29 07:22:52;;;;;;;;;;;14.80;92.90;;;;;;5012699;28;19964;-23
2022/09/29 07:25:18;;;;;;;;;;;14.80;93.00;;;;;;5012881;28;19905;-23
2022/09/29 07:27:44;;;;;;;;;;;14.80;93.00;;;;;;5012686;28;19905;-23
2022/09/29 07:30:10;;;;;;;;;;;14.80;93.00;;;;;;5012611;28;20008;-23
2022/09/29 07:32:35;;;;;;;;;;;14.80;93.00;;;;;;5012645;28;19960;-23
2022/09/29 07:35:01;;;;;;;;;;;14.80;93.00;;;;;;5012731;28;19909;-23
2022/09/29 07:37:27;;;;;;;;;;;14.80;93.10;;;;;;5012510;28;20365;-23
2022/09/29 07:39:53;;;;;;;;;;;14.80;93.00;;;;;;5012481;28;19912;-23
2022/09/29 07:42:20;;;;;;;;;;;14.80;93.10;;;;;;5012632;28;20001;-23
2022/09/29 07:44:46;;;;;;;;;;;14.80;93.10;;;;;;5015324;28;19913;-24
2022/09/29 07:47:12;;;;;;;;;;;14.80;93.10;;;;;;5016481;28;19905;-23
2022/09/29 07:49:38;;;;;;;;;;;14.80;93.10;;;;;;5015019;28;20029;-23
2022/09/29 07:52:04;;;;;;;;;;;14.80;93.20;;;;;;5016497;28;20727;-23
2022/09/29 07:54:30;;;;;;;;;;;14.80;93.20;;;;;;5016510;28;19963;-23
2022/09/29 07:56:55;;;;;;;;;;;14.80;93.20;;;;;;5016361;28;19915;-23
2022/09/29 07:59:21;;;;;;;;;;;14.80;93.20;;;;;;5016491;28;19912;-23
2022/09/29 08:01:47;;;;;;;;;;;14.80;93.20;;;;;;5016073;28;20000;-23
2022/09/29 08:04:13;;;;;;;;;;;14.80;93.20;;;;;;5016029;28;19906;-23
2022/09/29 08:06:39;;;;;;;;;;;14.80;93.30;;;;;;5015981;28;19986;-24
2022/09/29 08:09:05;;;;;;;;;;;14.80;93.30;;;;;;5016221;28;19933;-23
2022/09/29 08:11:31;;;;;;;;;;;14.80;93.30;;;;;;5016099;28;19960;-23
2022/09/29 08:13:56;;;;;;;;;;;14.80;93.30;;;;;;5015944;28;19921;-23
2022/09/29 08:16:22;;;;;;;;;;;14.90;93.30;;;;;;5015871;28;20184;-23
2022/09/29 08:18:49;;;;;;;;;;;14.80;93.30;;;;;;5015671;28;19905;-23
2022/09/29 08:21:14;;;;;;;;;;;14.80;93.40;;;;;;5015675;28;20252;-23
2022/09/29 08:23:41;;;;;;;;;;;14.80;93.40;;;;;;5015832;28;20338;-23
2022/09/29 08:26:08;;;;;;;;;;;14.80;93.40;;;;;;5015765;28;19912;-23
2022/09/29 08:28:34;;;;;;;;;;;14.80;93.40;;;;;;5014240;28;19945;-23
2022/09/29 08:31:07;;;;;;;;;;;14.80;93.40;;;;;;5015924;28;19913;-23
2022/09/29 08:33:33;;;;;;;;;;;14.80;93.50;;;;;;5015533;28;19927;-23
2022/09/29 08:35:59;;;;;;;;;;;14.80;93.50;;;;;;5015562;28;19906;-23
2022/09/29 08:38:25;;;;;;;;;;;14.80;93.50;;;;;;5015796;28;19909;-23
2022/09/29 08:40:51;;;;;;;;;;;14.80;93.50;;;;;;5015362;28;20370;-23
2022/09/29 08:43:22;;;;;;;;;;;14.80;93.50;;;;;;5014171;28;20044;-23
2022/09/29 08:46:06;;;;;;;;;;;14.80;93.60;;;;;;5015544;28;19958;-23
2022/09/29 08:48:34;;;;;;;;;;;14.80;93.60;;;;;;5015328;28;19965;-23
2022/09/29 08:51:04;;;;;;;;;;;14.80;93.60;;;;;;5015225;28;19905;-23
2022/09/29 08:53:32;;;;;;;;;;;14.80;93.60;;;;;;5015311;28;19928;-23
2022/09/29 08:55:57;;;;;;;;;;;14.80;93.60;;;;;;5013840;28;19906;-23
2022/09/29 08:58:23;;;;;;;;;;;14.80;93.60;;;;;;5014901;28;20326;-23
2022/09/29 09:01:01;;;;;;;;;;;14.90;93.60;;;;;;5014817;28;20366;-23
2022/09/29 09:03:45;;;;;;;;;;;14.90;93.60;;;;;;5015121;28;19913;-23
2022/09/29 09:06:11;;;;;;;;;;;14.90;93.60;;;;;;5014907;28;19906;-23
2022/09/29 09:08:45;;;;;;;;;;;14.90;93.60;;;;;;5014952;28;20290;-23
2022/09/29 09:11:29;;;;;;;;;;;15.00;93.60;;;;;;5014572;28;19920;-22
2022/09/29 09:14:10;;;;;;;;;;;15.00;93.60;;;;;;5014701;28;19998;-23
2022/09/29 09:16:35;;;;;;;;;;;15.00;93.60;;;;;;5014731;28;19920;-22
2022/09/29 09:19:19;;;;;;;;;;;15.00;93.50;;;;;;5014610;28;19906;-23
2022/09/29 09:21:52;;;;;;;;;;;15.00;93.50;;;;;;5014490;28;19905;-23
2022/09/29 09:24:28;;;;;;;;;;;15.00;93.50;;;;;;5013346;28;19928;-23
2022/09/29 09:26:55;;;;;;;;;;;15.00;93.60;;;;;;5014701;28;19977;-23
2022/09/29 09:29:23;;;;;;;;;;;15.00;93.60;;;;;;5014320;28;19905;-22
2022/09/29 09:31:52;;;;;;;;;;;15.10;93.60;;;;;;5014257;28;19912;-23
2022/09/29 09:34:24;;;;;;;;;;;15.00;93.60;;;;;;5014427;28;19963;-23
2022/09/29 09:36:56;;;;;;;;;;;15.00;93.60;;;;;;5014362;28;19913;-22
2022/09/29 09:39:36;;;;;;;;;;;15.00;93.60;;;;;;5014336;28;19906;-23
2022/09/29 09:42:06;;;;;;;;;;;15.00;93.60;;;;;;5014326;28;19948;-23
2022/09/29 09:44:33;;;;;;;;;;;15.00;93.60;;;;;;5015807;28;19985;-23
2022/09/29 09:47:08;;;;;;;;;;;15.00;93.60;;;;;;5017797;28;20057;-23
2022/09/29 09:49:36;;;;;;;;;;;15.00;93.60;;;;;;5014004;28;20391;-23
2022/09/29 09:52:03;;;;;;;;;;;15.00;93.60;;;;;;5014352;28;19956;-23
2022/09/29 09:54:31;;;;;;;;;;;15.00;93.60;;;;;;5014392;28;19906;-23
2022/09/29 09:57:09;;;;;;;;;;;15.10;93.60;;;;;;5012982;28;19913;-23
2022/09/29 09:59:47;;;;;;;;;;;15.10;93.60;;;;;;5014057;28;19909;-23
2022/09/29 10:02:16;;;;;;;;;;;15.10;93.60;;;;;;5012494;28;19935;-23
2022/09/29 10:04:42;;;;;;;;;;;15.10;93.60;;;;;;5014249;28;20374;-23
2022/09/29 10:07:08;;;;;;;;;;;15.10;93.60;;;;;;5013846;28;19913;-23
2022/09/29 10:09:34;;;;;;;;;;;15.10;93.60;;;;;;5013858;28;20004;-23
2022/09/29 10:12:00;;;;;;;;;;;15.00;93.60;;;;;;5013897;28;19952;-23
2022/09/29 10:14:26;;;;;;;;;;;15.10;93.60;;;;;;5014047;28;19905;-23
2022/09/29 10:16:58;;;;;;;;;;;15.10;93.60;;;;;;5013756;28;19909;-23
2022/09/29 10:19:43;;;;;;;;;;;15.10;93.60;;;;;;5013213;28;20001;-23
2022/09/29 10:22:13;;;;;;;;;;;15.10;93.60;;;;;;5013092;28;19956;-23
2022/09/29 10:24:38;;;;;;;;;;;15.10;93.60;;;;;;5012689;28;19915;-23
2022/09/29 10:27:04;;;;;;;;;;;15.10;93.60;;;;;;5011736;28;19913;-23
2022/09/29 10:29:36;;;;;;;;;;;15.10;93.60;;;;;;5012751;28;19913;-23
2022/09/29 10:32:08;;;;;;;;;;;15.10;93.60;;;;;;5010359;28;19941;-23
2022/09/29 10:34:35;;;;;;;;;;;15.10;93.70;;;;;;4973010;28;19914;-23
2022/09/29 10:37:06;;;;;;;;;;;15.10;93.70;;;;;;4959005;28;19956;-23
2022/09/29 10:39:32;;;;;;;;;;;15.10;93.60;;;;;;5013525;28;19910;-23
2022/09/29 10:41:57;;;;;;;;;;;15.10;93.60;;;;;;5008779;28;20100;-23
2022/09/29 10:44:23;;;;;;;;;;;15.10;93.60;;;;;;5010980;28;19929;-23
2022/09/29 10:46:53;;;;;;;;;;;15.10;93.60;;;;;;5012213;28;19916;-23
2022/09/29 10:49:24;;;;;;;;;;;15.10;93.60;;;;;;5013641;28;20421;-23
2022/09/29 10:51:49;;;;;;;;;;;15.20;93.60;;;;;;5013439;28;19913;-23
2022/09/29 10:54:15;;;;;;;;;;;15.20;93.60;;;;;;5012135;28;19928;-23
2022/09/29 10:56:45;;;;;;;;;;;15.20;93.60;;;;;;5012180;28;19913;-23
2022/09/29 10:59:11;;;;;;;;;;;15.20;93.60;;;;;;5008729;28;19967;-23
2022/09/29 11:01:44;;;;;;;;;;;15.20;93.60;;;;;;5012076;28;20322;-23
2022/09/29 11:04:16;;;;;;;;;;;15.20;93.60;;;;;;5012609;28;19912;-23
2022/09/29 11:06:41;;;;;;;;;;;15.20;93.50;;;;;;5012348;28;19913;-23
2022/09/29 11:09:14;;;;;;;;;;;15.30;93.60;;;;;;5012353;28;19905;-23
2022/09/29 11:11:45;;;;;;;;;;;15.30;93.60;;;;;;5012193;28;19905;-23
2022/09/29 11:14:24;;;;;;;;;;;15.30;93.60;;;;;;5012572;28;20239;-23
2022/09/29 11:17:13;;;;;;;;;;;15.30;93.50;;;;;;5012305;28;20414;-23
2022/09/29 11:19:39;;;;;;;;;;;15.30;93.50;;;;;;5009033;28;19905;-23
2022/09/29 11:22:10;;;;;;;;;;;15.30;93.50;;;;;;5016127;28;19905;-23
2022/09/29 11:24:42;;;;;;;;;;;15.30;93.50;;;;;;4999442;28;19932;-23
2022/09/29 11:27:26;;;;;;;;;;;15.30;93.50;;;;;;5014972;28;19909;-22
2022/09/29 11:30:10;;;;;;;;;;;15.30;93.50;;;;;;5011374;28;19988;-23
2022/09/29 11:33:04;;;;;;;;;;;15.30;93.50;;;;;;5015944;28;19916;-23
2022/09/29 11:35:35;;;;;;;;;;;15.30;93.50;;;;;;4993405;28;20003;-23
2022/09/29 11:38:20;;;;;;;;;;;15.30;93.50;;;;;;5015612;28;19917;-22
2022/09/29 11:40:48;;;;;;;;;;;15.30;93.50;;;;;;4998610;28;19909;-23
2022/09/29 11:43:26;;;;;;;;;;;15.30;93.50;;;;;;5015586;28;19913;-23
2022/09/29 11:46:03;;;;;;;;;;;15.30;93.60;;;;;;5015719;28;19905;-23
2022/09/29 11:48:35;;;;;;;;;;;15.30;93.60;;;;;;5015640;28;19916;-23
2022/09/29 11:51:13;;;;;;;;;;;15.30;93.60;;;;;;5015556;28;19905;-23
2022/09/29 11:53:44;;;;;;;;;;;15.30;93.60;;;;;;5015713;28;19909;-23
2022/09/29 11:56:30;;;;;;;;;;;15.30;93.50;;;;;;5015817;28;19960;-23
2022/09/29 11:59:05;;;;;;;;;;;15.30;93.50;;;;;;5015613;28;19909;-23
2022/09/29 12:01:50;;;;;;;;;;;15.30;93.60;;;;;;5015261;28;20355;-23
2022/09/29 12:04:41;;;;;;;;;;;15.30;93.60;;;;;;5015489;28;20342;-23
2022/09/29 12:07:13;;;;;;;;;;;15.30;93.60;;;;;;4999323;28;19905;-23
2022/09/29 12:09:55;;;;;;;;;;;15.30;93.60;;;;;;5015321;28;19996;-23
2022/09/29 12:12:38;;;;;;;;;;;15.30;93.60;;;;;;5015282;28;19951;-23
2022/09/29 12:15:07;;;;;;;;;;;15.30;93.70;;;;;;5015535;28;20382;-23
2022/09/29 12:17:34;;;;;;;;;;;15.30;93.60;;;;;;5015103;28;20351;-23
2022/09/29 12:20:06;;;;;;;;;;;15.30;93.70;;;;;;5014086;28;20020;-23
2022/09/29 12:22:32;;;;;;;;;;;15.30;93.70;;;;;;5015640;28;19912;-23
2022/09/29 12:24:58;;;;;;;;;;;15.30;94.00;;;;;;5015507;28;19944;-23
2022/09/29 12:27:35;;;;;;;;;;;15.30;93.70;;;;;;5015285;28;19916;-23
2022/09/29 12:30:02;;;;;;;;;;;15.30;93.70;;;;;;5011896;28;20371;-23
2022/09/29 12:32:31;;;;;;;;;;;15.30;93.70;;;;;;5015253;28;19905;-23
2022/09/29 12:35:04;;;;;;;;;;;15.30;93.70;;;;;;5015244;28;20330;-23
2022/09/29 12:37:33;;;;;;;;;;;15.30;93.70;;;;;;5015080;28;19920;-23
2022/09/29 12:40:17;;;;;;;;;;;15.30;93.60;;;;;;5014803;28;19951;-23
2022/09/29 12:42:45;;;;;;;;;;;15.30;93.70;;;;;;5015473;28;20333;-23
2022/09/29 12:45:23;;;;;;;;;;;15.30;93.70;;;;;;5015839;28;19909;-23
2022/09/29 12:47:48;;;;;;;;;;;15.30;93.60;;;;;;5013071;28;19909;-23
2022/09/29 12:50:17;;;;;;;;;;;15.40;93.70;;;;;;5017240;28;19909;-23
2022/09/29 12:52:52;;;;;;;;;;;15.40;93.60;;;;;;5015831;28;19909;-23
2022/09/29 12:55:24;;;;;;;;;;;15.40;93.60;;;;;;5018232;28;19905;-23
2022/09/29 12:57:51;;;;;;;;;;;15.40;93.60;;;;;;5014199;28;19909;-23
2022/09/29 13:00:17;;;;;;;;;;;15.40;93.60;;;;;;5014113;28;19909;-23
2022/09/29 13:03:02;;;;;;;;;;;15.40;93.60;;;;;;5014155;28;19914;-23
2022/09/29 13:05:36;;;;;;;;;;;15.40;93.60;;;;;;5013648;28;19917;-23
2022/09/29 13:08:25;;;;;;;;;;;15.40;93.60;;;;;;5012383;28;19910;-23
2022/09/29 13:10:56;;;;;;;;;;;15.40;93.60;;;;;;4994156;28;19912;-23
2022/09/29 13:13:28;;;;;;;;;;;15.40;93.60;;;;;;5013480;28;19920;-23
2022/09/29 13:16:06;;;;;;;;;;;15.40;93.60;;;;;;5014215;28;19973;-23
2022/09/29 13:18:41;;;;;;;;;;;15.40;93.60;;;;;;5013526;28;19913;-23
2022/09/29 13:21:22;;;;;;;;;;;15.40;93.70;;;;;;5013199;28;19913;-23
2022/09/29 13:24:12;;;;;;;;;;;15.40;93.70;;;;;;5007378;28;19976;-23
2022/09/29 13:26:53;;;;;;;;;;;15.40;93.70;;;;;;5009399;28;20289;-23
2022/09/29 13:29:20;;;;;;;;;;;15.40;93.70;;;;;;5013268;28;19945;-23
2022/09/29 13:31:47;;;;;;;;;;;15.30;93.70;;;;;;5012997;28;19906;-23
2022/09/29 13:34:33;;;;;;;;;;;15.40;93.70;;;;;;5013411;28;19905;-23
2022/09/29 13:37:15;;;;;;;;;;;15.40;93.70;;;;;;5012984;28;19913;-23
2022/09/29 13:39:42;;;;;;;;;;;15.40;93.70;;;;;;5013105;28;19905;-23
2022/09/29 13:42:28;;;;;;;;;;;15.40;93.70;;;;;;5012183;28;19905;-23
2022/09/29 13:45:14;;;;;;;;;;;15.40;93.70;;;;;;5005878;28;19910;-23
2022/09/29 13:47:44;;;;;;;;;;;15.40;93.70;;;;;;5013672;28;19913;-24
2022/09/29 13:50:28;;;;;;;;;;;15.40;93.70;;;;;;5012965;28;19912;-24
2022/09/29 13:53:11;;;;;;;;;;;15.40;93.70;;;;;;5012822;28;19996;-24
2022/09/29 13:55:46;;;;;;;;;;;15.40;93.70;;;;;;5011429;28;20314;-24
2022/09/29 13:58:44;;;;;;;;;;;15.40;93.70;;;;;;5012530;28;19914;-23
2022/09/29 14:01:11;;;;;;;;;;;15.40;93.70;;;;;;4950924;28;1084909;-24
2022/09/29 14:03:36;;;;;;;;;;;15.40;93.70;;;;;;5002110;28;19905;-24
2022/09/29 14:06:22;;;;;;;;;;;15.40;93.70;;;;;;5013289;28;19912;-24
2022/09/29 14:08:53;;;;;;;;;;;15.40;93.70;;;;;;5003617;28;19995;-24
2022/09/29 14:11:36;;;;;;;;;;;15.40;93.70;;;;;;5004777;28;19912;-24
2022/09/29 14:14:05;;;;;;;;;;;15.40;93.70;;;;;;5014104;28;19911;-24
2022/09/29 14:16:36;;;;;;;;;;;15.40;93.70;;;;;;4992189;28;20379;-24
2022/09/29 14:19:06;;;;;;;;;;;15.40;93.70;;;;;;5005871;28;19996;-24
2022/09/29 14:21:52;;;;;;;;;;;15.40;93.70;;;;;;5012990;28;19911;-23
2022/09/29 14:24:33;;;;;;;;;;;15.40;93.70;;;;;;5012962;28;19906;-24
2022/09/29 14:27:17;;;;;;;;;;;15.40;93.70;;;;;;5011784;28;19912;-23
2022/09/29 14:29:52;;;;;;;;;;;15.40;94.10;;;;;;5012889;28;19996;-24
2022/09/29 14:32:19;;;;;;;;;;;15.40;93.70;;;;;;5012984;28;19905;-24
2022/09/29 14:34:45;;;;;;;;;;;15.40;93.70;;;;;;5011635;28;19916;-24